Kennard, NE

6:41 PM CST on December 04, 2016 (GMT -0600)
CR 32 | | Change Station

Elev 1240 ft 41.47 °N, 96.13 °W | Updated 1 minute ago

Clear
Clear
32.0 °F
Feels Like 32 °F
N
3.0
Wind Variable Wind from WSW
Gusts 10.0 mph

Today
High -- | Low -- °F
--% Chance of Precip.
Yesterday
High -- | Low -- °F
Precip. -- in
Pressure 29.89 in
Visibility 10.0 miles
Clouds Clear
Windchill 32 °F
Dew Point 32 °F
Humidity 100%
Rainfall 0.23 in
Snow Depth Not available.
7:34 AM 4:54 PM
Waxing Crescent, 26% visible
METAR KBTA 050035Z AUTO 17007KT 10SM CLR 01/00 A2989 RMK AO2 T00071003
Pressure 29.89 in
Visibility 10.0 miles
Clouds Clear
Windchill 32 °F
Dew Point 32 °F
Humidity 100%
Rainfall 0.23 in
Snow Depth Not available.
7:34 AM 4:54 PM
Waxing Crescent, 26% visible
METAR KBTA 050035Z AUTO 17007KT 10SM CLR 01/00 A2989 RMK AO2 T00071003

10-Day Weather Forecast

Almanac

Astronomy

Dec. 04, 2016 Rise Set
Actual Time
Civil Twilight
Nautical Twilight
Astronomical Twilight
Moon
Length of Visible Light
Length of Day
Tomorrow will be .
, % of the Moon is Illuminated

Today's Extremes

State Highs State Lows

Community

WunderPhotos

Upload Photos

1,955,729 photos uploaded!

WunderBlog® & News

Nearby

Air Quality

  Air Quality AQ Index Pollutant
Not available.

Snow Depth

Station Depth Elevation

Earthquake Activity

City Distance Mag. Time & Date
Minimum magnitude displayed is 2.5.

Coastal Water Temperatures

Place Temperature

Stations

Nearby Weather Stations

Station Location Temp. Windchill Dew Point Humidity Wind Precip. Elev Updated Type
                   

Watches & Warnings

There are currently no watches in effect.